createdAt,value
2022-08-22T00:02:30.075Z,21.40
2022-08-22T00:02:57.787Z,21.50
2022-08-22T00:03:00.233Z,23.30
2022-08-22T00:03:02.386Z,22.54
2022-08-22T00:05:04.287Z,21.40
2022-08-22T00:08:00.053Z,21.40
2022-08-22T00:10:51.338Z,21.46
2022-08-22T00:13:38.720Z,21.50
2022-08-22T00:16:50.219Z,21.40
2022-08-22T00:19:42.511Z,21.44
2022-08-22T00:22:19.677Z,21.50
2022-08-22T00:25:11.195Z,21.50
2022-08-22T00:27:59.692Z,21.50
2022-08-22T00:30:29.207Z,21.42
2022-08-22T00:33:02.423Z,21.40
2022-08-22T00:35:36.385Z,21.40
2022-08-22T00:38:22.085Z,21.40
2022-08-22T00:40:53.855Z,21.40
2022-08-22T00:43:59.293Z,21.40
2022-08-22T00:46:56.063Z,21.40
2022-08-22T00:49:31.250Z,21.40
2022-08-22T00:52:38.146Z,21.40
2022-08-22T00:55:17.890Z,21.30
2022-08-22T00:58:30.198Z,21.30
2022-08-22T01:01:10.483Z,21.30
2022-08-22T01:03:44.101Z,21.20
2022-08-22T01:06:32.650Z,21.20
2022-08-22T01:09:11.874Z,21.20
2022-08-22T01:11:51.810Z,21.20
2022-08-22T01:14:38.297Z,21.20
2022-08-22T01:17:45.362Z,21.20
2022-08-22T01:20:34.601Z,21.20
2022-08-22T01:23:32.674Z,21.10
2022-08-22T01:26:19.490Z,21.10
2022-08-22T01:29:27.818Z,21.10
2022-08-22T01:32:37.706Z,21.10
2022-08-22T01:35:26.594Z,21.10
2022-08-22T01:38:18.858Z,21.10
2022-08-22T01:41:24.714Z,21.10
2022-08-22T01:44:02.346Z,21.10
2022-08-22T01:46:37.464Z,21.10
2022-08-22T01:49:14.111Z,21.00
2022-08-22T01:52:02.859Z,21.04
2022-08-22T01:54:31.143Z,21.02
2022-08-22T01:57:02.738Z,21.00
2022-08-22T01:59:53.024Z,21.00
2022-08-22T02:02:45.921Z,21.00
2022-08-22T02:05:46.871Z,21.00
2022-08-22T02:08:52.457Z,21.00
2022-08-22T02:11:50.424Z,20.98
2022-08-22T02:14:33.212Z,20.90
2022-08-22T02:17:17.381Z,20.94
2022-08-22T02:20:10.640Z,20.92
2022-08-22T02:23:00.871Z,20.90
2022-08-22T02:25:33.158Z,20.90
2022-08-22T02:28:15.748Z,20.90
2022-08-22T02:31:02.358Z,20.90
2022-08-22T02:33:46.274Z,20.90
2022-08-22T02:36:19.124Z,20.90
2022-08-22T02:39:07.974Z,20.98
2022-08-22T02:41:57.416Z,20.96
2022-08-22T02:44:25.199Z,21.00
2022-08-22T02:47:02.251Z,21.00
2022-08-22T02:49:47.434Z,20.98
2022-08-22T02:52:28.720Z,20.98
2022-08-22T02:55:37.949Z,21.00
2022-08-22T02:58:19.100Z,21.00
2022-08-22T03:01:33.426Z,21.00
2022-08-22T03:04:22.109Z,21.00
2022-08-22T03:06:58.899Z,21.00
2022-08-22T03:10:05.617Z,21.00
2022-08-22T03:12:55.777Z,21.00
2022-08-22T03:15:34.604Z,21.00
2022-08-22T03:18:21.545Z,21.00
2022-08-22T03:20:55.411Z,21.00
2022-08-22T03:23:28.946Z,21.00
2022-08-22T03:26:07.496Z,21.00
2022-08-22T03:28:58.933Z,21.00
2022-08-22T03:31:31.333Z,20.96
2022-08-22T03:34:22.835Z,20.98
2022-08-22T03:37:17.881Z,21.00
2022-08-22T03:39:51.685Z,21.00
2022-08-22T03:42:38.392Z,20.90
2022-08-22T03:45:26.582Z,20.90
2022-08-22T03:48:18.643Z,20.90
2022-08-22T03:51:13.473Z,20.90
2022-08-22T03:54:15.350Z,20.80
2022-08-22T03:56:54.051Z,20.80
2022-08-22T03:59:54.125Z,20.80
2022-08-22T04:02:42.896Z,20.72
2022-08-22T04:05:52.794Z,20.70
2022-08-22T04:09:00.167Z,20.70
2022-08-22T04:11:59.982Z,20.68
2022-08-22T04:15:11.108Z,20.60
2022-08-22T04:18:28.413Z,20.60
2022-08-22T04:21:13.919Z,20.60
2022-08-22T04:23:50.832Z,20.60
2022-08-22T04:26:33.213Z,20.60
2022-08-22T04:29:07.932Z,20.60
2022-08-22T04:31:46.527Z,20.60
2022-08-22T04:34:27.563Z,20.60
2022-08-22T04:37:04.339Z,20.60
2022-08-22T04:39:48.240Z,20.60
2022-08-22T04:42:33.497Z,20.60
2022-08-22T04:45:17.165Z,20.60
2022-08-22T04:48:00.230Z,20.60
2022-08-22T04:50:34.942Z,20.60
2022-08-22T04:53:23.196Z,20.60
2022-08-22T04:56:22.329Z,20.60
2022-08-22T04:58:57.357Z,20.70
2022-08-22T05:01:27.180Z,20.70
2022-08-22T05:04:00.753Z,20.80
2022-08-22T05:06:32.649Z,20.80
2022-08-22T05:09:05.933Z,20.90
2022-08-22T05:11:34.854Z,20.90
2022-08-22T05:14:12.242Z,21.00
2022-08-22T05:16:41.952Z,21.06
2022-08-22T05:19:25.064Z,21.10
2022-08-22T05:21:57.619Z,21.18
2022-08-22T05:24:32.546Z,21.20
2022-08-22T05:27:04.675Z,21.30
2022-08-22T05:29:33.025Z,21.30
2022-08-22T05:32:06.828Z,21.44
2022-08-22T05:34:38.903Z,21.68
2022-08-22T05:37:19.495Z,21.90
2022-08-22T05:39:50.811Z,22.00
2022-08-22T05:42:33.812Z,22.10
2022-08-22T05:45:03.220Z,22.20
2022-08-22T05:47:36.505Z,22.28
2022-08-22T05:50:23.916Z,22.30
2022-08-22T05:53:09.994Z,22.40
2022-08-22T05:55:52.948Z,22.56
2022-08-22T05:58:39.180Z,22.88
2022-08-22T06:01:25.577Z,23.58
2022-08-22T06:04:41.412Z,24.32
2022-08-22T06:07:27.655Z,25.10
2022-08-22T06:09:55.301Z,25.40
2022-08-22T06:12:39.316Z,25.34
2022-08-22T06:15:21.299Z,25.14
2022-08-22T06:17:52.609Z,25.10
2022-08-22T06:21:21.650Z,25.78
2022-08-22T06:23:57.747Z,26.00
2022-08-22T06:26:35.512Z,26.30
2022-08-22T06:29:07.367Z,26.50
2022-08-22T06:31:45.942Z,26.60
2022-08-22T06:34:24.793Z,26.34
2022-08-22T06:36:54.585Z,26.20
2022-08-22T06:39:35.672Z,26.08
2022-08-22T06:42:15.979Z,25.92
2022-08-22T06:45:02.889Z,26.00
2022-08-22T06:47:37.203Z,25.90
2022-08-22T06:50:21.129Z,25.60
2022-08-22T06:53:11.763Z,25.30
2022-08-22T06:55:46.278Z,25.00
2022-08-22T06:58:18.296Z,24.90
2022-08-22T07:00:52.422Z,24.80
2022-08-22T07:03:38.434Z,24.64
2022-08-22T07:06:13.002Z,24.70
2022-08-22T07:08:41.119Z,24.66
2022-08-22T07:11:24.586Z,24.80
2022-08-22T07:14:02.702Z,24.80
2022-08-22T07:16:48.176Z,25.48
2022-08-22T07:19:59.599Z,25.80
2022-08-22T07:22:35.092Z,25.68
2022-08-22T07:25:15.405Z,25.60
2022-08-22T07:28:51.493Z,25.60
2022-08-22T07:31:37.871Z,25.60
2022-08-22T07:34:35.876Z,25.64
2022-08-22T07:37:23.792Z,25.48
2022-08-22T07:39:59.583Z,25.40
2022-08-22T07:42:43.352Z,25.50
2022-08-22T07:45:39.330Z,25.50
2022-08-22T07:48:31.724Z,25.50
2022-08-22T07:51:13.534Z,25.40
2022-08-22T07:53:49.219Z,25.42
2022-08-22T07:56:24.196Z,25.60
2022-08-22T07:58:58.084Z,25.68
2022-08-22T08:01:27.304Z,25.70
2022-08-22T08:04:08.440Z,25.70
2022-08-22T08:06:36.769Z,25.64
2022-08-22T08:09:05.164Z,25.80
2022-08-22T08:11:40.477Z,25.90
2022-08-22T08:14:13.483Z,25.90
2022-08-22T08:17:19.772Z,25.96
2022-08-22T08:19:50.707Z,25.90
2022-08-22T08:22:24.860Z,25.98
2022-08-22T08:24:57.286Z,25.90
2022-08-22T08:27:50.279Z,25.90
2022-08-22T08:30:24.919Z,25.88
2022-08-22T08:33:24.074Z,25.92
2022-08-22T08:36:09.970Z,26.00
2022-08-22T08:38:55.319Z,26.10
2022-08-22T08:42:03.101Z,26.10
2022-08-22T08:45:28.877Z,26.14
2022-08-22T08:48:23.139Z,26.20
2022-08-22T08:51:09.249Z,26.48
2022-08-22T08:54:33.778Z,26.70
2022-08-22T08:57:31.660Z,27.00
2022-08-22T09:00:15.112Z,27.02
2022-08-22T09:02:58.783Z,27.00
2022-08-22T09:05:55.805Z,27.00
2022-08-22T09:08:51.608Z,27.18
2022-08-22T09:11:53.216Z,27.30
2022-08-22T09:14:45.573Z,27.40
2022-08-22T09:17:45.067Z,27.30
2022-08-22T09:20:25.236Z,27.10
2022-08-22T09:23:24.019Z,27.00
2022-08-22T09:26:04.956Z,27.00
2022-08-22T09:28:58.993Z,26.98
2022-08-22T09:31:48.188Z,26.80
2022-08-22T09:34:53.964Z,26.74
2022-08-22T09:37:33.869Z,26.80
2022-08-22T09:40:23.371Z,26.80
2022-08-22T09:43:12.947Z,26.80
2022-08-22T09:45:54.395Z,26.80
2022-08-22T09:48:48.018Z,26.74
2022-08-22T09:51:38.801Z,26.60
2022-08-22T09:54:31.510Z,26.60
2022-08-22T09:57:22.538Z,26.60
2022-08-22T10:00:05.807Z,26.60
2022-08-22T10:03:01.437Z,26.54
2022-08-22T10:05:55.002Z,26.60
2022-08-22T10:08:46.778Z,26.70
2022-08-22T10:11:24.294Z,26.80
2022-08-22T10:14:03.064Z,26.80
2022-08-22T10:17:07.649Z,26.80
2022-08-22T10:19:47.118Z,26.80
2022-08-22T10:22:44.584Z,26.90
2022-08-22T10:25:42.212Z,27.04
2022-08-22T10:28:16.532Z,27.20
2022-08-22T10:30:47.494Z,27.30
2022-08-22T10:33:29.056Z,27.30
2022-08-22T10:36:15.929Z,27.30
2022-08-22T10:38:56.095Z,27.40
2022-08-22T10:41:59.835Z,27.40
2022-08-22T10:44:41.132Z,27.40
2022-08-22T10:47:18.081Z,27.50
2022-08-22T10:49:53.311Z,27.60
2022-08-22T10:52:31.337Z,27.70
2022-08-22T10:55:09.644Z,27.70
2022-08-22T10:58:04.711Z,27.70
2022-08-22T11:00:58.624Z,27.70
2022-08-22T11:03:57.484Z,27.74
2022-08-22T11:07:09.446Z,27.80
2022-08-22T11:09:51.640Z,27.70
2022-08-22T11:12:37.373Z,27.80
2022-08-22T11:15:35.195Z,27.80
2022-08-22T11:18:36.645Z,27.80
2022-08-22T11:22:03.763Z,27.78
2022-08-22T11:24:35.657Z,27.80
2022-08-22T11:27:45.075Z,27.80
2022-08-22T11:30:18.538Z,27.90
2022-08-22T11:33:00.187Z,27.98
2022-08-22T11:35:44.908Z,28.00
2022-08-22T11:38:36.303Z,28.10
2022-08-22T11:41:15.021Z,28.02
2022-08-22T11:43:50.998Z,28.00
2022-08-22T11:46:22.670Z,28.00
2022-08-22T11:49:10.814Z,27.90
2022-08-22T11:52:19.899Z,28.00
2022-08-22T11:55:21.456Z,28.00
2022-08-22T11:58:19.895Z,27.98
2022-08-22T12:01:17.259Z,27.80
2022-08-22T12:03:59.637Z,27.80
2022-08-22T12:06:54.558Z,27.80
2022-08-22T12:09:37.968Z,27.70
2022-08-22T12:12:45.295Z,27.70
2022-08-22T12:15:35.014Z,27.70
2022-08-22T12:18:27.794Z,27.70
2022-08-22T12:21:40.795Z,27.80
2022-08-22T12:24:41.667Z,27.80
2022-08-22T12:27:55.265Z,27.70
2022-08-22T12:31:08.623Z,27.78
2022-08-22T12:33:42.488Z,27.70
2022-08-22T12:36:40.973Z,27.72
2022-08-22T12:39:41.090Z,27.80
2022-08-22T12:42:46.181Z,27.90
2022-08-22T12:45:28.887Z,28.10
2022-08-22T12:48:43.069Z,28.28
2022-08-22T12:51:42.995Z,28.40
2022-08-22T12:54:56.653Z,28.48
2022-08-22T12:57:39.525Z,28.40
2022-08-22T13:00:37.251Z,28.30
2022-08-22T13:03:33.677Z,28.36
2022-08-22T13:06:27.076Z,28.40
2022-08-22T13:08:55.473Z,28.44
2022-08-22T13:11:23.803Z,28.60
2022-08-22T13:13:58.675Z,28.60
2022-08-22T13:16:39.038Z,28.70
2022-08-22T13:19:18.609Z,28.70
2022-08-22T13:21:52.950Z,28.80
2022-08-22T13:24:55.282Z,29.02
2022-08-22T13:27:34.764Z,29.20
2022-08-22T13:30:12.404Z,29.10
2022-08-22T13:32:54.712Z,29.10
2022-08-22T13:35:30.691Z,28.90
2022-08-22T13:38:25.647Z,28.90
2022-08-22T13:40:57.691Z,28.98
2022-08-22T13:43:54.791Z,28.90
2022-08-22T13:46:28.236Z,28.90
2022-08-22T13:49:01.270Z,29.00
2022-08-22T13:52:01.644Z,29.08
2022-08-22T13:54:58.031Z,29.24
2022-08-22T13:57:54.157Z,29.32
2022-08-22T14:01:15.172Z,29.20
2022-08-22T14:03:57.328Z,29.10
2022-08-22T14:07:13.173Z,29.20
2022-08-22T14:10:18.648Z,29.20
2022-08-22T14:12:56.494Z,29.10
2022-08-22T14:15:45.452Z,29.10
2022-08-22T14:18:30.004Z,29.00
2022-08-22T14:21:33.454Z,29.10
2022-08-22T14:24:20.628Z,29.10
2022-08-22T14:27:06.439Z,29.00
2022-08-22T14:29:54.879Z,29.00
2022-08-22T14:32:27.631Z,28.90
2022-08-22T14:35:21.522Z,28.86
2022-08-22T14:38:35.655Z,28.80
2022-08-22T14:41:13.955Z,28.80
2022-08-22T14:44:02.056Z,28.80
2022-08-22T14:47:04.200Z,28.80
2022-08-22T14:49:59.571Z,28.70
2022-08-22T14:52:45.357Z,28.60
2022-08-22T14:55:30.462Z,28.50
2022-08-22T14:58:07.638Z,28.50
2022-08-22T15:00:46.949Z,28.50
2022-08-22T15:03:34.951Z,28.40
2022-08-22T15:06:29.129Z,28.40
2022-08-22T15:08:57.873Z,28.30
2022-08-22T15:11:31.890Z,28.30
2022-08-22T15:14:23.640Z,28.20
2022-08-22T15:16:59.592Z,28.20
2022-08-22T15:19:41.060Z,28.20
2022-08-22T15:22:14.914Z,28.10
2022-08-22T15:25:04.532Z,28.10
2022-08-22T15:27:42.609Z,27.90
2022-08-22T15:30:18.797Z,27.80
2022-08-22T15:32:49.133Z,27.80
2022-08-22T15:35:31.300Z,27.84
2022-08-22T15:38:05.832Z,28.10
2022-08-22T15:40:45.712Z,28.30
2022-08-22T15:43:35.789Z,28.40
2022-08-22T15:46:27.386Z,28.20
2022-08-22T15:49:27.895Z,28.02
2022-08-22T15:52:01.847Z,27.90
2022-08-22T15:54:55.113Z,27.80
2022-08-22T15:57:40.599Z,27.70
2022-08-22T16:00:36.752Z,27.70
2022-08-22T16:03:33.250Z,27.60
2022-08-22T16:06:07.887Z,27.58
2022-08-22T16:08:35.677Z,27.50
2022-08-22T16:11:03.317Z,27.50
2022-08-22T16:13:31.090Z,27.48
2022-08-22T16:16:03.183Z,27.44
2022-08-22T16:18:33.940Z,27.50
2022-08-22T16:21:17.412Z,27.40
2022-08-22T16:23:54.248Z,27.40
2022-08-22T16:26:30.979Z,27.40
2022-08-22T16:29:13.633Z,27.30
2022-08-22T16:31:48.547Z,27.30
2022-08-22T16:34:16.441Z,27.30
2022-08-22T16:36:54.754Z,27.30
2022-08-22T16:39:22.452Z,27.32
2022-08-22T16:41:54.200Z,27.30
2022-08-22T16:44:28.176Z,27.30
2022-08-22T16:47:20.114Z,27.30
2022-08-22T16:49:50.930Z,27.20
2022-08-22T16:52:22.220Z,27.20
2022-08-22T16:54:52.761Z,27.20
2022-08-22T16:58:05.122Z,27.10
2022-08-22T17:00:51.199Z,27.02
2022-08-22T17:03:37.207Z,27.00
2022-08-22T17:06:56.314Z,26.90
2022-08-22T17:09:47.401Z,26.80
2022-08-22T17:12:39.579Z,26.70
2022-08-22T17:15:30.979Z,26.70
2022-08-22T17:18:35.593Z,26.60
2022-08-22T17:21:29.556Z,26.60
2022-08-22T17:24:33.529Z,26.50
2022-08-22T17:27:30.317Z,26.48
2022-08-22T17:30:20.315Z,26.40
2022-08-22T17:33:15.546Z,26.30
2022-08-22T17:36:08.744Z,26.22
2022-08-22T17:39:37.472Z,26.18
2022-08-22T17:42:35.574Z,26.10
2022-08-22T17:45:42.013Z,26.00
2022-08-22T17:48:26.651Z,25.90
2022-08-22T17:51:11.621Z,25.80
2022-08-22T17:53:56.442Z,25.70
2022-08-22T17:57:00.445Z,25.70
2022-08-22T18:00:15.731Z,25.60
2022-08-22T18:02:51.137Z,25.50
2022-08-22T18:05:33.849Z,25.50
2022-08-22T18:11:55.475Z,25.40
2022-08-22T18:14:47.409Z,25.30
2022-08-22T18:17:37.494Z,25.30
2022-08-22T18:20:23.867Z,25.30
2022-08-22T18:23:21.439Z,25.20
2022-08-22T18:26:20.583Z,25.20
2022-08-22T18:29:19.725Z,25.12
2022-08-22T18:32:11.149Z,25.10
2022-08-22T18:35:02.827Z,25.10
2022-08-22T18:37:30.681Z,25.06
2022-08-22T18:40:03.803Z,25.00
2022-08-22T18:42:49.883Z,25.00
2022-08-22T18:45:46.882Z,25.00
2022-08-22T18:48:34.272Z,25.00
2022-08-22T18:51:27.286Z,25.00
2022-08-22T18:54:03.946Z,25.00
2022-08-22T18:56:33.177Z,24.90
2022-08-22T18:59:20.730Z,24.90
2022-08-22T19:02:21.807Z,24.90
2022-08-22T19:05:21.731Z,24.90
2022-08-22T19:08:26.635Z,24.88
2022-08-22T19:11:50.426Z,25.00
2022-08-22T19:14:52.091Z,25.16
2022-08-22T19:17:37.454Z,25.30
2022-08-22T19:20:48.818Z,25.40
2022-08-22T19:23:31.895Z,25.48
2022-08-22T19:26:30.750Z,25.50
2022-08-22T19:29:24.413Z,25.50
2022-08-22T19:32:13.223Z,25.50
2022-08-22T19:34:46.942Z,25.60
2022-08-22T19:37:33.202Z,25.52
2022-08-22T19:40:12.275Z,25.50
2022-08-22T19:42:43.072Z,25.50
2022-08-22T19:45:29.056Z,25.50
2022-08-22T19:48:14.223Z,25.50
2022-08-22T19:50:43.765Z,25.48
2022-08-22T19:53:46.007Z,25.40
2022-08-22T19:56:36.933Z,25.40
2022-08-22T19:59:24.140Z,25.30
2022-08-22T20:01:57.311Z,25.30
2022-08-22T20:05:01.943Z,25.28
2022-08-22T20:07:47.157Z,25.20
2022-08-22T20:10:34.784Z,25.20
2022-08-22T20:13:18.046Z,25.20
2022-08-22T20:16:17.144Z,25.10
2022-08-22T20:19:08.798Z,25.10
2022-08-22T20:21:50.346Z,25.00
2022-08-22T20:24:46.643Z,24.90
2022-08-22T20:27:28.714Z,24.80
2022-08-22T20:30:07.627Z,24.70
2022-08-22T20:33:09.987Z,24.70
2022-08-22T20:35:55.120Z,24.60
2022-08-22T20:38:30.052Z,24.50
2022-08-22T20:41:11.105Z,24.46
2022-08-22T20:43:55.558Z,24.40
2022-08-22T20:46:33.313Z,24.30
2022-08-22T20:49:02.158Z,24.30
2022-08-22T20:51:33.794Z,24.20
2022-08-22T20:54:19.412Z,24.16
2022-08-22T20:57:01.939Z,24.10
2022-08-22T20:59:37.023Z,24.10
2022-08-22T21:02:16.122Z,24.00
2022-08-22T21:05:18.432Z,24.00
2022-08-22T21:08:00.840Z,24.00
2022-08-22T21:10:55.444Z,23.90
2022-08-22T21:13:35.238Z,23.90
2022-08-22T21:16:20.779Z,23.80
2022-08-22T21:18:52.494Z,23.80
2022-08-22T21:21:25.140Z,23.70
2022-08-22T21:24:00.824Z,23.70
2022-08-22T21:26:36.649Z,23.70
2022-08-22T21:29:13.401Z,23.60
2022-08-22T21:31:52.740Z,23.60
2022-08-22T21:34:53.692Z,23.60
2022-08-22T21:37:45.098Z,23.60
2022-08-22T21:40:32.271Z,23.56
2022-08-22T21:43:11.526Z,23.52
2022-08-22T21:45:39.203Z,23.50
2022-08-22T21:48:45.764Z,23.50
2022-08-22T21:51:24.281Z,23.50
2022-08-22T21:54:31.225Z,23.40
2022-08-22T21:57:16.676Z,23.40
2022-08-22T21:59:51.387Z,23.36
2022-08-22T22:02:45.450Z,23.30
2022-08-22T22:05:17.656Z,23.30
2022-08-22T22:07:47.426Z,23.20
2022-08-22T22:10:19.289Z,23.20
2022-08-22T22:12:49.545Z,23.20
2022-08-22T22:15:20.590Z,23.20
2022-08-22T22:17:48.796Z,23.10
2022-08-22T22:20:19.352Z,23.10
2022-08-22T22:22:47.686Z,23.10
2022-08-22T22:25:38.976Z,23.10
2022-08-22T22:28:15.033Z,23.08
2022-08-22T22:30:45.728Z,23.00
2022-08-22T22:33:13.759Z,23.00
2022-08-22T22:35:41.710Z,23.00
2022-08-22T22:38:10.129Z,22.98
2022-08-22T22:40:38.200Z,22.92
2022-08-22T22:43:05.888Z,22.90
2022-08-22T22:45:33.956Z,22.90
2022-08-22T22:48:01.914Z,22.86
2022-08-22T22:50:30.009Z,22.80
2022-08-22T22:52:57.838Z,22.80
2022-08-22T22:55:25.824Z,22.70
2022-08-22T22:57:59.130Z,22.70
2022-08-22T23:00:31.420Z,22.70
2022-08-22T23:03:02.569Z,22.80
2022-08-22T23:05:31.607Z,22.90
2022-08-22T23:08:00.610Z,23.00
2022-08-22T23:10:30.669Z,23.00
2022-08-22T23:12:59.507Z,23.10
2022-08-22T23:15:28.268Z,23.10
2022-08-22T23:17:56.324Z,23.10
2022-08-22T23:20:24.571Z,23.08
2022-08-22T23:22:52.468Z,23.10
2022-08-22T23:25:20.633Z,23.10
2022-08-22T23:27:48.790Z,23.10
2022-08-22T23:30:26.383Z,23.00
2022-08-22T23:32:55.736Z,23.00
2022-08-22T23:35:23.620Z,22.90
2022-08-22T23:37:51.467Z,22.80
2022-08-22T23:40:19.488Z,22.80
2022-08-22T23:42:47.398Z,22.72
2022-08-22T23:45:15.113Z,22.70
2022-08-22T23:47:42.903Z,22.60
2022-08-22T23:50:10.891Z,22.56
2022-08-22T23:52:38.669Z,22.50
2022-08-22T23:55:07.180Z,22.40
2022-08-22T23:57:35.075Z,22.40
